Time;durP1;ratioP1;P1;durP2;ratioP2;P2;SDS_P1;SDS_P2;PMS_P1;PMS_P2;Temp;Humidity;BMP_temperature;BMP_pressure;BME280_temperature;BME280_humidity;BME280_pressure;Samples;Min_cycle;Max_cycle;Signal;HPM_P1;HPM_P2
2023/07/09 00:00:06;;;;;;;;;;;22.20;96.70;;;;;;5016111;28;19932;-91
2023/07/09 00:02:31;;;;;;;;;;;22.10;97.10;;;;;;5020476;28;20067;-90
2023/07/09 00:04:57;;;;;;;;;;;22.00;97.60;;;;;;5022691;28;19925;-92
2023/07/09 00:07:23;;;;;;;;;;;21.90;97.70;;;;;;5004246;28;19925;-93
2023/07/09 00:09:49;;;;;;;;;;;21.90;97.90;;;;;;5017816;28;19929;-92
2023/07/09 00:12:15;;;;;;;;;;;21.80;98.40;;;;;;5005294;28;20143;-92
2023/07/09 00:14:41;;;;;;;;;;;21.80;98.60;;;;;;5026596;28;20396;-91
2023/07/09 00:17:11;;;;;;;;;;;21.80;98.90;;;;;;5006940;28;19925;-91
2023/07/09 00:19:36;;;;;;;;;;;21.70;98.90;;;;;;5018422;28;19968;-91
2023/07/09 00:22:02;;;;;;;;;;;21.70;99.00;;;;;;5004025;28;19932;-92
2023/07/09 00:24:28;;;;;;;;;;;21.70;99.30;;;;;;5022683;28;19940;-91
2023/07/09 00:26:54;;;;;;;;;;;21.70;99.30;;;;;;5043287;28;19980;-91
2023/07/09 00:29:20;;;;;;;;;;;21.70;99.40;;;;;;5009084;28;19965;-91
2023/07/09 00:31:45;;;;;;;;;;;21.70;99.70;;;;;;5028314;28;19925;-91
2023/07/09 00:34:12;;;;;;;;;;;21.60;99.60;;;;;;5025967;28;19925;-92
2023/07/09 00:36:39;;;;;;;;;;;21.60;99.70;;;;;;5023097;28;19937;-93
2023/07/09 00:39:04;;;;;;;;;;;21.60;99.70;;;;;;5029627;28;20006;-91
2023/07/09 00:41:37;;;;;;;;;;;21.60;99.90;;;;;;5005412;28;19928;-91
2023/07/09 00:44:21;;;;;;;;;;;21.60;99.90;;;;;;5021288;28;20413;-91
2023/07/09 00:46:47;;;;;;;;;;;21.60;99.90;;;;;;5013793;28;20012;-91
2023/07/09 00:49:16;;;;;;;;;;;21.50;99.90;;;;;;5018122;28;20400;-91
2023/07/09 00:51:45;;;;;;;;;;;21.50;99.90;;;;;;5021800;28;19925;-92
2023/07/09 00:54:30;;;;;;;;;;;21.50;99.90;;;;;;5022195;28;19936;-91
2023/07/09 00:56:58;;;;;;;;;;;21.50;99.90;;;;;;5017151;28;19936;-90
2023/07/09 00:59:28;;;;;;;;;;;21.50;99.90;;;;;;5021726;28;19975;-92
2023/07/09 01:01:55;;;;;;;;;;;21.50;99.90;;;;;;5029566;28;19994;-92
2023/07/09 01:04:21;;;;;;;;;;;21.50;99.90;;;;;;5009389;28;19932;-91
2023/07/09 01:06:51;;;;;;;;;;;21.50;99.90;;;;;;5028339;28;20401;-93
2023/07/09 01:09:17;;;;;;;;;;;21.40;99.90;;;;;;5002630;28;19939;-91
2023/07/09 01:11:43;;;;;;;;;;;21.40;99.90;;;;;;5020724;28;19925;-93
2023/07/09 01:14:10;;;;;;;;;;;21.40;99.90;;;;;;5019672;28;19975;-92
2023/07/09 01:16:37;;;;;;;;;;;21.50;99.90;;;;;;5017785;28;19961;-92
2023/07/09 01:19:04;;;;;;;;;;;21.50;99.90;;;;;;5031334;28;19925;-91
2023/07/09 01:21:30;;;;;;;;;;;21.40;99.90;;;;;;5019532;28;19925;-91
2023/07/09 01:23:57;;;;;;;;;;;21.50;99.90;;;;;;5006184;28;20385;-92
2023/07/09 01:26:27;;;;;;;;;;;21.40;99.90;;;;;;5012672;28;20337;-92
2023/07/09 01:28:53;;;;;;;;;;;21.40;99.90;;;;;;5025746;28;19992;-92
2023/07/09 01:31:20;;;;;;;;;;;21.40;99.90;;;;;;5024824;28;20477;-91
2023/07/09 01:33:46;;;;;;;;;;;21.30;99.90;;;;;;5019520;28;19947;-91
2023/07/09 01:36:13;;;;;;;;;;;21.30;99.90;;;;;;5005248;28;19964;-92
2023/07/09 01:38:39;;;;;;;;;;;21.30;99.90;;;;;;5035981;28;19929;-90
2023/07/09 01:41:05;;;;;;;;;;;21.30;99.90;;;;;;5014697;28;20306;-91
2023/07/09 01:43:31;;;;;;;;;;;21.20;99.90;;;;;;5025683;28;19932;-92
2023/07/09 01:45:58;;;;;;;;;;;21.20;99.90;;;;;;5036326;28;19921;-93
2023/07/09 01:48:25;;;;;;;;;;;21.20;99.90;;;;;;5019066;28;19983;-92
2023/07/09 01:50:51;;;;;;;;;;;21.10;99.90;;;;;;5015761;28;19985;-91
2023/07/09 01:53:19;;;;;;;;;;;21.10;99.90;;;;;;5019242;28;19926;-92
2023/07/09 01:55:45;;;;;;;;;;;21.00;99.90;;;;;;5020765;28;19925;-92
2023/07/09 01:58:10;;;;;;;;;;;21.00;99.90;;;;;;5007691;28;19932;-91
2023/07/09 02:00:37;;;;;;;;;;;21.00;99.90;;;;;;5017032;28;19925;-91
2023/07/09 02:03:04;;;;;;;;;;;20.90;99.90;;;;;;5023345;28;19926;-91
2023/07/09 02:05:31;;;;;;;;;;;20.90;99.90;;;;;;5057257;28;19936;-90
2023/07/09 02:07:56;;;;;;;;;;;20.80;99.90;;;;;;5013482;28;19957;-91
2023/07/09 02:10:22;;;;;;;;;;;20.80;99.90;;;;;;5020715;28;19929;-91
2023/07/09 02:12:48;;;;;;;;;;;20.80;99.90;;;;;;5000276;28;19929;-92
2023/07/09 02:15:14;;;;;;;;;;;20.70;99.90;;;;;;5032298;28;19925;-92
2023/07/09 02:17:40;;;;;;;;;;;20.70;99.90;;;;;;5040803;28;19925;-93
2023/07/09 02:20:06;;;;;;;;;;;20.60;99.90;;;;;;5040092;28;19937;-91
2023/07/09 02:22:33;;;;;;;;;;;20.60;99.90;;;;;;5039257;28;19925;-90
2023/07/09 02:24:58;;;;;;;;;;;20.60;99.90;;;;;;5039636;28;19933;-93
2023/07/09 02:27:24;;;;;;;;;;;20.50;99.90;;;;;;5022693;28;19936;-91
2023/07/09 02:29:50;;;;;;;;;;;20.50;99.90;;;;;;5037151;28;19948;-92
2023/07/09 02:32:19;;;;;;;;;;;20.40;99.90;;;;;;5023413;28;19968;-91
2023/07/09 02:34:48;;;;;;;;;;;20.40;99.90;;;;;;5013068;28;19932;-93
2023/07/09 02:37:17;;;;;;;;;;;20.40;99.90;;;;;;5018428;28;19932;-93
2023/07/09 02:39:43;;;;;;;;;;;20.40;99.90;;;;;;5012858;28;19932;-91
2023/07/09 02:42:10;;;;;;;;;;;20.40;99.90;;;;;;5003248;28;19957;-91
2023/07/09 02:44:36;;;;;;;;;;;20.40;99.90;;;;;;5032810;28;19937;-92
2023/07/09 02:47:02;;;;;;;;;;;20.40;99.90;;;;;;5004355;28;19925;-91
2023/07/09 02:49:28;;;;;;;;;;;20.40;99.90;;;;;;5030355;28;19929;-92
2023/07/09 02:51:53;;;;;;;;;;;20.40;99.90;;;;;;5002226;28;19925;-92
2023/07/09 02:54:19;;;;;;;;;;;20.40;99.90;;;;;;5020481;28;20014;-91
2023/07/09 02:56:45;;;;;;;;;;;20.40;99.90;;;;;;5001746;28;19973;-91
2023/07/09 02:59:11;;;;;;;;;;;20.40;99.90;;;;;;5027670;28;19925;-91
2023/07/09 03:01:37;;;;;;;;;;;20.40;99.90;;;;;;5033709;28;19947;-92
2023/07/09 03:04:02;;;;;;;;;;;20.40;99.90;;;;;;5049074;28;19925;-91
2023/07/09 03:06:29;;;;;;;;;;;20.40;99.90;;;;;;5011455;28;19930;-91
2023/07/09 03:08:54;;;;;;;;;;;20.40;99.90;;;;;;5018575;28;20806;-91
2023/07/09 03:11:20;;;;;;;;;;;20.40;99.90;;;;;;5017448;28;20025;-92
2023/07/09 03:13:46;;;;;;;;;;;20.40;99.90;;;;;;5045763;28;19925;-91
2023/07/09 03:16:12;;;;;;;;;;;20.40;99.90;;;;;;5006965;28;19988;-91
2023/07/09 03:18:37;;;;;;;;;;;20.40;99.90;;;;;;5034093;28;19925;-91
2023/07/09 03:21:03;;;;;;;;;;;20.30;99.90;;;;;;5020149;28;20512;-92
2023/07/09 03:23:29;;;;;;;;;;;20.40;99.90;;;;;;4999133;28;19929;-92
2023/07/09 03:25:55;;;;;;;;;;;20.30;99.90;;;;;;5022008;28;19925;-92
2023/07/09 03:28:21;;;;;;;;;;;20.30;99.90;;;;;;5005372;28;19925;-92
2023/07/09 03:30:47;;;;;;;;;;;20.30;99.90;;;;;;5033855;28;19991;-92
2023/07/09 03:33:14;;;;;;;;;;;20.30;99.90;;;;;;5022953;28;19979;-92
2023/07/09 03:35:39;;;;;;;;;;;20.30;99.90;;;;;;5017482;28;19933;-92
2023/07/09 03:38:06;;;;;;;;;;;20.30;99.90;;;;;;5041361;28;20040;-91
2023/07/09 03:40:31;;;;;;;;;;;20.30;99.90;;;;;;5039315;28;19925;-93
2023/07/09 03:42:57;;;;;;;;;;;20.30;99.90;;;;;;5038903;28;19936;-91
2023/07/09 03:45:23;;;;;;;;;;;20.30;99.90;;;;;;5006365;28;20010;-93
2023/07/09 03:47:48;;;;;;;;;;;20.20;99.90;;;;;;5004119;28;20387;-91
2023/07/09 03:50:14;;;;;;;;;;;20.20;99.90;;;;;;5020747;28;19957;-92
2023/07/09 03:52:40;;;;;;;;;;;20.20;99.90;;;;;;5021741;28;19925;-91
2023/07/09 03:55:06;;;;;;;;;;;20.20;99.90;;;;;;5009401;28;19994;-91
2023/07/09 03:57:32;;;;;;;;;;;20.20;99.90;;;;;;5011340;28;19929;-92
2023/07/09 03:59:58;;;;;;;;;;;20.20;99.90;;;;;;5009875;28;19925;-90
2023/07/09 04:02:23;;;;;;;;;;;20.20;99.90;;;;;;4993524;28;20449;-91
2023/07/09 04:04:49;;;;;;;;;;;20.30;99.90;;;;;;5001626;28;19925;-92
2023/07/09 04:07:15;;;;;;;;;;;20.30;99.90;;;;;;5005572;28;19979;-92
2023/07/09 04:09:41;;;;;;;;;;;20.30;99.90;;;;;;5003390;28;19926;-93
2023/07/09 04:12:06;;;;;;;;;;;20.30;99.90;;;;;;5021454;28;20014;-91
2023/07/09 04:14:32;;;;;;;;;;;20.30;99.90;;;;;;5022244;28;19945;-92
2023/07/09 04:16:58;;;;;;;;;;;20.40;99.90;;;;;;5019371;28;19929;-93
2023/07/09 04:19:24;;;;;;;;;;;20.40;99.90;;;;;;5006914;28;19956;-93
2023/07/09 04:21:49;;;;;;;;;;;20.50;99.90;;;;;;5001310;28;20488;-92
2023/07/09 04:24:16;;;;;;;;;;;20.50;99.90;;;;;;5004568;28;19926;-92
2023/07/09 04:26:42;;;;;;;;;;;20.60;99.90;;;;;;5019585;28;19953;-91
2023/07/09 04:29:07;;;;;;;;;;;20.60;99.90;;;;;;5020650;28;19929;-92
2023/07/09 04:31:33;;;;;;;;;;;20.70;99.90;;;;;;5029394;28;19921;-91
2023/07/09 04:33:59;;;;;;;;;;;20.70;99.90;;;;;;5051033;28;19922;-92
2023/07/09 04:36:26;;;;;;;;;;;20.70;99.90;;;;;;5013616;28;19925;-92
2023/07/09 04:38:51;;;;;;;;;;;20.80;99.90;;;;;;5012503;28;19977;-91
2023/07/09 04:41:17;;;;;;;;;;;20.80;99.90;;;;;;5014466;28;19956;-91
2023/07/09 04:43:43;;;;;;;;;;;20.80;99.90;;;;;;5019594;28;20432;-91
2023/07/09 04:46:09;;;;;;;;;;;20.90;99.90;;;;;;5021679;28;19979;-91
2023/07/09 04:48:34;;;;;;;;;;;20.90;99.90;;;;;;5016179;28;19992;-91
2023/07/09 04:51:00;;;;;;;;;;;20.90;99.90;;;;;;5037606;28;19929;-91
2023/07/09 04:53:26;;;;;;;;;;;21.00;99.90;;;;;;5016494;28;19996;-91
2023/07/09 04:55:51;;;;;;;;;;;21.00;99.90;;;;;;5020068;28;19984;-91
2023/07/09 04:58:18;;;;;;;;;;;21.10;99.90;;;;;;5004963;28;20453;-92
2023/07/09 05:00:44;;;;;;;;;;;21.10;99.90;;;;;;5003768;28;19925;-93
2023/07/09 05:03:09;;;;;;;;;;;21.10;99.90;;;;;;5037240;28;19925;-93
2023/07/09 05:05:35;;;;;;;;;;;21.20;99.90;;;;;;5017777;28;19925;-92
2023/07/09 05:08:01;;;;;;;;;;;21.20;99.90;;;;;;4997298;28;19978;-91
2023/07/09 05:10:26;;;;;;;;;;;21.30;99.90;;;;;;5022896;28;19932;-93
2023/07/09 05:12:53;;;;;;;;;;;21.40;99.90;;;;;;5018178;28;19936;-92
2023/07/09 05:15:19;;;;;;;;;;;21.40;99.90;;;;;;5039276;28;19939;-92
2023/07/09 05:17:45;;;;;;;;;;;21.50;99.90;;;;;;5012296;28;19926;-90
2023/07/09 05:20:12;;;;;;;;;;;21.50;99.90;;;;;;5002984;28;19925;-91
2023/07/09 05:22:37;;;;;;;;;;;21.60;99.90;;;;;;5000852;28;20003;-92
2023/07/09 05:25:03;;;;;;;;;;;21.60;99.90;;;;;;5021006;28;19940;-91
2023/07/09 05:27:29;;;;;;;;;;;21.70;99.90;;;;;;5002388;28;19941;-91
2023/07/09 05:29:54;;;;;;;;;;;21.80;99.90;;;;;;5002234;28;19936;-91
2023/07/09 05:32:20;;;;;;;;;;;21.90;99.90;;;;;;5034204;28;20095;-90
2023/07/09 05:34:46;;;;;;;;;;;21.90;99.90;;;;;;5021263;28;19925;-91
2023/07/09 05:37:11;;;;;;;;;;;22.00;99.90;;;;;;5016343;28;20431;-92
2023/07/09 05:39:37;;;;;;;;;;;22.00;99.90;;;;;;4997154;28;19976;-92
2023/07/09 05:42:03;;;;;;;;;;;22.10;99.90;;;;;;5000863;28;20404;-93
2023/07/09 05:44:28;;;;;;;;;;;22.20;99.90;;;;;;5001042;28;20008;-92
2023/07/09 05:46:54;;;;;;;;;;;22.20;99.90;;;;;;5017424;28;19936;-92
2023/07/09 05:49:19;;;;;;;;;;;22.40;99.90;;;;;;5027569;28;19925;-92
2023/07/09 05:51:45;;;;;;;;;;;22.40;99.90;;;;;;5021394;28;19996;-92
2023/07/09 05:54:11;;;;;;;;;;;22.40;99.90;;;;;;5027113;28;19921;-94
2023/07/09 05:56:36;;;;;;;;;;;22.50;99.90;;;;;;5029898;28;19925;-92
2023/07/09 05:59:02;;;;;;;;;;;22.50;99.90;;;;;;4993876;28;19957;-91
2023/07/09 06:01:34;;;;;;;;;;;22.60;99.90;;;;;;5006229;28;19932;-92
2023/07/09 06:04:00;;;;;;;;;;;22.60;99.90;;;;;;5013579;28;19971;-91
2023/07/09 06:06:26;;;;;;;;;;;22.60;99.90;;;;;;4990322;28;19992;-91
2023/07/09 06:08:52;;;;;;;;;;;22.60;99.90;;;;;;5020258;28;19940;-92
2023/07/09 06:11:18;;;;;;;;;;;22.70;99.90;;;;;;5014875;28;19936;-91
2023/07/09 06:13:44;;;;;;;;;;;22.70;99.90;;;;;;5010574;28;19925;-93
2023/07/09 06:16:09;;;;;;;;;;;22.60;99.90;;;;;;5018545;28;19925;-92
2023/07/09 06:18:35;;;;;;;;;;;22.60;99.90;;;;;;5016121;28;19925;-92
2023/07/09 06:21:01;;;;;;;;;;;22.60;99.90;;;;;;5025558;28;19925;-92
2023/07/09 06:23:27;;;;;;;;;;;22.50;99.90;;;;;;5027639;28;19989;-91
2023/07/09 06:25:53;;;;;;;;;;;22.60;99.90;;;;;;5019355;28;19932;-91
2023/07/09 06:28:21;;;;;;;;;;;22.60;99.90;;;;;;5023216;28;19925;-91
2023/07/09 06:30:47;;;;;;;;;;;22.60;99.90;;;;;;5014995;28;19925;-92
2023/07/09 06:33:13;;;;;;;;;;;22.70;99.90;;;;;;5009578;28;19925;-91
2023/07/09 06:35:39;;;;;;;;;;;22.70;99.90;;;;;;5010314;28;19925;-92
2023/07/09 06:38:05;;;;;;;;;;;22.90;99.90;;;;;;5032048;28;19926;-92
2023/07/09 06:40:31;;;;;;;;;;;22.90;99.90;;;;;;5016624;28;19935;-92
2023/07/09 06:42:57;;;;;;;;;;;23.00;99.90;;;;;;5019913;28;19925;-91
2023/07/09 06:45:23;;;;;;;;;;;23.10;99.90;;;;;;5018079;28;19929;-92
2023/07/09 06:47:49;;;;;;;;;;;23.30;99.90;;;;;;5015154;28;19929;-92
2023/07/09 06:50:15;;;;;;;;;;;23.40;99.90;;;;;;5021858;28;19929;-92
2023/07/09 06:52:41;;;;;;;;;;;23.40;99.90;;;;;;5023287;28;19925;-92
2023/07/09 06:55:07;;;;;;;;;;;23.50;99.90;;;;;;5004842;28;19935;-94
2023/07/09 06:57:33;;;;;;;;;;;23.70;99.90;;;;;;5033798;28;20282;-92
2023/07/09 06:59:58;;;;;;;;;;;23.70;99.90;;;;;;5016052;28;19999;-92
2023/07/09 07:02:24;;;;;;;;;;;23.80;99.90;;;;;;5003746;28;20012;-92
2023/07/09 07:04:50;;;;;;;;;;;23.80;99.90;;;;;;5037543;28;19932;-92
2023/07/09 07:07:15;;;;;;;;;;;23.90;99.90;;;;;;5021972;28;19955;-92
2023/07/09 07:09:41;;;;;;;;;;;24.00;99.90;;;;;;5006658;28;20027;-91
2023/07/09 07:12:07;;;;;;;;;;;24.00;99.90;;;;;;5017789;28;19926;-92
2023/07/09 07:14:32;;;;;;;;;;;24.10;99.90;;;;;;5016708;28;19931;-92
2023/07/09 07:16:58;;;;;;;;;;;24.10;99.90;;;;;;5027298;28;19936;-91
2023/07/09 07:19:24;;;;;;;;;;;24.20;99.90;;;;;;5023206;28;19947;-91
2023/07/09 07:21:49;;;;;;;;;;;24.30;99.90;;;;;;5020894;28;20333;-91
2023/07/09 07:24:15;;;;;;;;;;;24.30;99.90;;;;;;5018677;28;20064;-92
2023/07/09 07:26:40;;;;;;;;;;;24.50;99.90;;;;;;5007136;28;19965;-92
2023/07/09 07:29:06;;;;;;;;;;;24.60;99.90;;;;;;5001513;28;19925;-94
2023/07/09 07:31:31;;;;;;;;;;;24.60;99.90;;;;;;5006340;28;19925;-92
2023/07/09 07:33:57;;;;;;;;;;;24.70;99.90;;;;;;5004212;28;19933;-93
2023/07/09 07:36:23;;;;;;;;;;;24.80;99.90;;;;;;4997808;28;19926;-92
2023/07/09 07:38:49;;;;;;;;;;;24.80;99.90;;;;;;5020097;28;19926;-93
2023/07/09 07:41:14;;;;;;;;;;;24.90;99.90;;;;;;5020090;28;19929;-93
2023/07/09 07:43:40;;;;;;;;;;;24.90;99.90;;;;;;5014033;28;19925;-90
2023/07/09 07:46:06;;;;;;;;;;;24.90;99.90;;;;;;5002818;28;19925;-91
2023/07/09 07:48:31;;;;;;;;;;;24.90;99.90;;;;;;5021590;28;19925;-91
2023/07/09 07:51:01;;;;;;;;;;;25.00;99.90;;;;;;4997344;28;19925;-92
2023/07/09 07:53:29;;;;;;;;;;;25.00;99.90;;;;;;5022066;28;19972;-91
2023/07/09 07:55:56;;;;;;;;;;;25.10;99.90;;;;;;5021807;28;19978;-91
2023/07/09 07:58:22;;;;;;;;;;;25.20;99.90;;;;;;5016602;28;19925;-90
2023/07/09 08:00:47;;;;;;;;;;;25.30;99.90;;;;;;5028856;28;19925;-91
2023/07/09 08:03:13;;;;;;;;;;;25.40;99.90;;;;;;5012731;28;19930;-91
2023/07/09 08:05:39;;;;;;;;;;;25.40;99.90;;;;;;5013832;28;20297;-92
2023/07/09 08:08:04;;;;;;;;;;;25.50;99.90;;;;;;5022763;28;19929;-90
2023/07/09 08:10:30;;;;;;;;;;;25.60;99.90;;;;;;5012402;28;19925;-91
2023/07/09 08:12:57;;;;;;;;;;;25.70;99.90;;;;;;5002584;28;19936;-92
2023/07/09 08:15:25;;;;;;;;;;;25.70;99.90;;;;;;4995574;28;19953;-93
2023/07/09 08:17:51;;;;;;;;;;;25.90;99.90;;;;;;5022264;28;19925;-91
2023/07/09 08:20:16;;;;;;;;;;;26.00;99.90;;;;;;5036985;28;19955;-93
2023/07/09 08:22:42;;;;;;;;;;;26.10;99.90;;;;;;5018542;28;19988;-91
2023/07/09 08:25:08;;;;;;;;;;;26.20;99.90;;;;;;5002392;28;19940;-91
2023/07/09 08:27:34;;;;;;;;;;;26.30;99.90;;;;;;5028264;28;19925;-92
2023/07/09 08:29:59;;;;;;;;;;;26.40;99.90;;;;;;5021433;28;19984;-89
2023/07/09 08:32:25;;;;;;;;;;;26.50;99.90;;;;;;5004331;28;20354;-91
2023/07/09 08:34:50;;;;;;;;;;;26.60;99.90;;;;;;5021224;28;19925;-91
2023/07/09 08:37:16;;;;;;;;;;;26.70;99.90;;;;;;5026067;28;19921;-93
2023/07/09 08:39:42;;;;;;;;;;;26.80;99.90;;;;;;5034648;28;19921;-92
2023/07/09 08:42:10;;;;;;;;;;;26.80;99.80;;;;;;4998906;28;19957;-92
2023/07/09 08:44:38;;;;;;;;;;;26.70;99.90;;;;;;5042381;28;19925;-92
2023/07/09 08:47:12;;;;;;;;;;;26.80;99.90;;;;;;5022860;28;19988;-93
2023/07/09 08:49:41;;;;;;;;;;;26.90;99.90;;;;;;5009074;28;19929;-91
2023/07/09 08:52:13;;;;;;;;;;;27.00;99.90;;;;;;5020722;28;19925;-90
2023/07/09 08:54:39;;;;;;;;;;;27.10;99.90;;;;;;5021736;28;19929;-92
2023/07/09 08:57:25;;;;;;;;;;;27.20;99.30;;;;;;5002542;28;19925;-90
2023/07/09 08:59:54;;;;;;;;;;;27.30;98.70;;;;;;5027739;28;19956;-89
2023/07/09 09:02:30;;;;;;;;;;;27.50;99.00;;;;;;5018344;28;19925;-92
2023/07/09 09:04:55;;;;;;;;;;;27.60;98.90;;;;;;5029598;28;19938;-92
2023/07/09 09:07:41;;;;;;;;;;;27.70;98.30;;;;;;5022943;28;19956;-91
2023/07/09 09:10:10;;;;;;;;;;;27.80;98.20;;;;;;5035684;28;19933;-91
2023/07/09 09:12:40;;;;;;;;;;;27.90;98.40;;;;;;5026212;28;19922;-93
2023/07/09 09:15:09;;;;;;;;;;;28.00;98.30;;;;;;5013061;28;19969;-91
2023/07/09 09:17:37;;;;;;;;;;;28.10;96.80;;;;;;5029550;28;19992;-91
2023/07/09 09:20:17;;;;;;;;;;;28.10;98.10;;;;;;5033597;28;20011;-93
2023/07/09 09:22:53;;;;;;;;;;;28.20;98.30;;;;;;5019359;28;19925;-91
2023/07/09 09:25:26;;;;;;;;;;;28.30;97.90;;;;;;5036614;28;19929;-93
2023/07/09 09:27:52;;;;;;;;;;;28.40;96.30;;;;;;5019425;28;19926;-93
2023/07/09 09:30:20;;;;;;;;;;;28.40;96.00;;;;;;5021059;28;19989;-94
2023/07/09 09:32:52;;;;;;;;;;;28.50;95.90;;;;;;5035289;28;19925;-93
2023/07/09 09:35:19;;;;;;;;;;;28.60;97.60;;;;;;5015937;28;19933;-92
2023/07/09 09:37:49;;;;;;;;;;;28.70;97.90;;;;;;5007399;28;19925;-94
2023/07/09 09:40:16;;;;;;;;;;;28.70;97.20;;;;;;5020273;28;20442;-92
2023/07/09 09:42:43;;;;;;;;;;;28.70;96.20;;;;;;5025386;28;19926;-93
2023/07/09 09:45:12;;;;;;;;;;;28.80;96.70;;;;;;5007381;28;19955;-93
2023/07/09 09:47:38;;;;;;;;;;;28.80;96.40;;;;;;5023521;28;19929;-93
2023/07/09 09:50:04;;;;;;;;;;;28.80;96.70;;;;;;5025398;28;19925;-93
2023/07/09 09:52:32;;;;;;;;;;;28.90;96.70;;;;;;5022735;28;19926;-93
2023/07/09 09:55:01;;;;;;;;;;;28.90;96.20;;;;;;5022882;28;19929;-92
2023/07/09 09:57:27;;;;;;;;;;;29.00;96.50;;;;;;5041982;28;20020;-93
2023/07/09 09:59:56;;;;;;;;;;;29.10;96.30;;;;;;5029913;28;19934;-93
2023/07/09 10:02:23;;;;;;;;;;;29.10;96.80;;;;;;5030754;28;19957;-92
2023/07/09 10:04:49;;;;;;;;;;;29.20;96.70;;;;;;5047493;28;19921;-92
2023/07/09 10:07:22;;;;;;;;;;;29.20;96.90;;;;;;5042706;28;20013;-90
2023/07/09 10:09:49;;;;;;;;;;;29.30;96.80;;;;;;5040478;28;19972;-91
2023/07/09 10:12:14;;;;;;;;;;;29.30;95.40;;;;;;5023819;28;19939;-93
2023/07/09 10:14:40;;;;;;;;;;;29.30;96.10;;;;;;5008049;28;19925;-93
2023/07/09 10:17:12;;;;;;;;;;;29.40;96.50;;;;;;5022838;28;19971;-93
2023/07/09 10:19:43;;;;;;;;;;;29.50;97.50;;;;;;5030361;28;19932;-93
2023/07/09 10:22:29;;;;;;;;;;;29.50;96.90;;;;;;5021554;28;19925;-92
2023/07/09 10:25:07;;;;;;;;;;;29.60;96.30;;;;;;5012297;28;19933;-93
2023/07/09 10:27:51;;;;;;;;;;;29.60;96.60;;;;;;5031723;28;19972;-91
2023/07/09 10:30:17;;;;;;;;;;;29.70;95.00;;;;;;5019332;28;19925;-92
2023/07/09 10:32:51;;;;;;;;;;;29.60;93.90;;;;;;5035132;28;19987;-92
2023/07/09 10:35:29;;;;;;;;;;;29.60;94.90;;;;;;5028773;28;19985;-91
2023/07/09 10:37:55;;;;;;;;;;;29.70;94.90;;;;;;5034754;28;19932;-93
2023/07/09 10:40:43;;;;;;;;;;;29.80;94.40;;;;;;5054883;28;19929;-92
2023/07/09 10:43:32;;;;;;;;;;;29.70;94.50;;;;;;5016947;28;19948;-93
2023/07/09 10:46:01;;;;;;;;;;;29.70;94.80;;;;;;5034854;28;19968;-92
2023/07/09 10:48:38;;;;;;;;;;;29.90;94.00;;;;;;5034305;28;19925;-92
2023/07/09 10:51:07;;;;;;;;;;;29.90;94.40;;;;;;5016884;28;19925;-91
2023/07/09 10:53:32;;;;;;;;;;;29.90;94.70;;;;;;5018601;28;19925;-93
2023/07/09 10:56:01;;;;;;;;;;;30.10;94.60;;;;;;5032583;28;19936;-93
2023/07/09 10:58:37;;;;;;;;;;;30.10;94.70;;;;;;5016535;28;19979;-92
2023/07/09 11:01:03;;;;;;;;;;;30.20;94.60;;;;;;5036508;28;20011;-92
2023/07/09 11:03:47;;;;;;;;;;;30.30;95.20;;;;;;5036590;28;19930;-93
2023/07/09 11:06:29;;;;;;;;;;;30.40;95.10;;;;;;5013927;28;20750;-92
2023/07/09 11:08:55;;;;;;;;;;;30.50;92.90;;;;;;5038748;28;19925;-93
2023/07/09 11:11:40;;;;;;;;;;;30.60;93.70;;;;;;5013451;28;20363;-92
2023/07/09 11:14:18;;;;;;;;;;;30.70;94.20;;;;;;5032387;28;20390;-92
2023/07/09 11:16:44;;;;;;;;;;;30.80;92.90;;;;;;5021221;28;19932;-91
2023/07/09 11:19:14;;;;;;;;;;;30.80;93.20;;;;;;5035239;28;20459;-91
2023/07/09 11:21:44;;;;;;;;;;;30.80;92.40;;;;;;5045549;28;19921;-92
2023/07/09 11:24:29;;;;;;;;;;;30.70;93.00;;;;;;5033484;28;19921;-92
2023/07/09 11:26:55;;;;;;;;;;;30.70;92.70;;;;;;5030683;28;19925;-92
2023/07/09 11:29:23;;;;;;;;;;;30.70;92.10;;;;;;5006819;28;19936;-90
2023/07/09 11:31:49;;;;;;;;;;;30.70;92.40;;;;;;5035841;28;19987;-92
2023/07/09 11:34:17;;;;;;;;;;;30.70;91.80;;;;;;5034038;28;19929;-92
2023/07/09 11:36:50;;;;;;;;;;;30.80;92.00;;;;;;5033998;28;20023;-91
2023/07/09 11:39:22;;;;;;;;;;;30.70;91.60;;;;;;5018841;28;19926;-92
2023/07/09 11:41:47;;;;;;;;;;;30.80;92.50;;;;;;5012349;28;19926;-90
2023/07/09 11:44:22;;;;;;;;;;;30.80;92.60;;;;;;5037910;28;19967;-92
2023/07/09 11:47:07;;;;;;;;;;;30.80;92.20;;;;;;5023106;28;19960;-93
2023/07/09 11:49:38;;;;;;;;;;;31.00;92.10;;;;;;5033467;28;19925;-92
2023/07/09 11:52:04;;;;;;;;;;;31.10;93.40;;;;;;5021926;28;19932;-91
2023/07/09 11:54:37;;;;;;;;;;;31.20;92.70;;;;;;5019090;28;19993;-91
2023/07/09 11:57:03;;;;;;;;;;;31.30;91.30;;;;;;5037214;28;19947;-91
2023/07/09 11:59:29;;;;;;;;;;;31.40;91.90;;;;;;5010729;28;20366;-92
2023/07/09 12:01:55;;;;;;;;;;;31.50;92.30;;;;;;5014694;28;19929;-91
2023/07/09 12:04:24;;;;;;;;;;;31.60;91.80;;;;;;5023398;28;19925;-93
2023/07/09 12:06:52;;;;;;;;;;;31.60;92.40;;;;;;5026303;28;19960;-91
2023/07/09 12:09:19;;;;;;;;;;;31.60;92.10;;;;;;5038435;28;19929;-92
2023/07/09 12:11:46;;;;;;;;;;;31.70;91.80;;;;;;5018977;28;20357;-93
2023/07/09 12:14:13;;;;;;;;;;;31.70;91.50;;;;;;5008404;28;19925;-91
2023/07/09 12:16:45;;;;;;;;;;;31.80;91.90;;;;;;5021004;28;19929;-93
2023/07/09 12:19:16;;;;;;;;;;;31.80;91.90;;;;;;5011386;28;19926;-90
2023/07/09 12:21:46;;;;;;;;;;;32.00;93.70;;;;;;5027452;28;20316;-93
2023/07/09 12:24:23;;;;;;;;;;;32.10;92.20;;;;;;5036709;28;19933;-91
2023/07/09 12:26:52;;;;;;;;;;;32.20;92.20;;;;;;5001404;28;19972;-93
2023/07/09 12:29:18;;;;;;;;;;;32.10;90.80;;;;;;5036769;28;19928;-92
2023/07/09 12:31:43;;;;;;;;;;;32.20;91.50;;;;;;5015161;28;19956;-92
2023/07/09 12:34:11;;;;;;;;;;;32.20;91.80;;;;;;5014233;28;19925;-90
2023/07/09 12:36:38;;;;;;;;;;;32.20;90.90;;;;;;5030739;28;20040;-92
2023/07/09 12:39:03;;;;;;;;;;;32.20;90.70;;;;;;5042905;28;20297;-92
2023/07/09 12:41:34;;;;;;;;;;;32.20;90.70;;;;;;5024864;28;19932;-91
2023/07/09 12:44:00;;;;;;;;;;;32.20;90.90;;;;;;5027563;28;20203;-94
2023/07/09 12:46:27;;;;;;;;;;;32.20;89.80;;;;;;5038740;28;19932;-94
2023/07/09 12:48:54;;;;;;;;;;;32.30;90.70;;;;;;5033776;28;19956;-94
2023/07/09 12:51:27;;;;;;;;;;;32.30;90.20;;;;;;5024952;28;19952;-93
2023/07/09 12:54:11;;;;;;;;;;;32.40;90.00;;;;;;5007450;28;19930;-91
2023/07/09 12:56:37;;;;;;;;;;;32.40;90.00;;;;;;5034058;28;20390;-93
2023/07/09 12:59:12;;;;;;;;;;;32.50;88.70;;;;;;5007722;28;19926;-92
2023/07/09 13:01:39;;;;;;;;;;;32.30;87.50;;;;;;5025401;28;19925;-92
2023/07/09 13:04:05;;;;;;;;;;;32.20;89.20;;;;;;4998377;28;19935;-93
2023/07/09 13:06:34;;;;;;;;;;;32.20;89.50;;;;;;5006546;28;19964;-91
2023/07/09 13:09:00;;;;;;;;;;;32.20;89.10;;;;;;5033949;28;19932;-92
2023/07/09 13:11:33;;;;;;;;;;;32.00;87.80;;;;;;5031030;28;19925;-91
2023/07/09 13:14:01;;;;;;;;;;;32.00;90.20;;;;;;5017429;28;19933;-91
2023/07/09 13:16:27;;;;;;;;;;;32.00;89.70;;;;;;5025352;28;20380;-92
2023/07/09 13:18:53;;;;;;;;;;;31.90;87.30;;;;;;5021161;28;19933;-93
2023/07/09 13:21:20;;;;;;;;;;;32.00;86.50;;;;;;5009527;28;19930;-91
2023/07/09 13:23:46;;;;;;;;;;;31.90;89.00;;;;;;5025038;28;20347;-91
2023/07/09 13:26:13;;;;;;;;;;;32.00;86.00;;;;;;5022235;28;19929;-92
2023/07/09 13:28:39;;;;;;;;;;;32.00;87.30;;;;;;5014964;28;19929;-91
2023/07/09 13:31:18;;;;;;;;;;;31.90;87.20;;;;;;5038597;28;20012;-90
2023/07/09 13:33:50;;;;;;;;;;;31.90;88.00;;;;;;5023375;28;19926;-92
2023/07/09 13:36:15;;;;;;;;;;;32.00;87.70;;;;;;5042610;28;19966;-90
2023/07/09 13:38:41;;;;;;;;;;;32.00;89.00;;;;;;5025296;28;19976;-91
2023/07/09 13:41:12;;;;;;;;;;;32.20;86.30;;;;;;5023424;28;20210;-92
2023/07/09 13:43:39;;;;;;;;;;;32.30;85.80;;;;;;5011865;28;20231;-92
2023/07/09 13:46:06;;;;;;;;;;;32.40;87.00;;;;;;5018665;28;19975;-91
2023/07/09 13:48:33;;;;;;;;;;;32.50;84.70;;;;;;5032536;28;20039;-91
2023/07/09 13:50:59;;;;;;;;;;;32.70;84.30;;;;;;5039651;28;19929;-92
2023/07/09 13:53:28;;;;;;;;;;;32.70;83.70;;;;;;5029304;28;19959;-91
2023/07/09 13:55:54;;;;;;;;;;;32.70;85.50;;;;;;5043568;28;19936;-91
2023/07/09 13:58:21;;;;;;;;;;;32.80;87.00;;;;;;5044054;28;20021;-91
2023/07/09 14:00:47;;;;;;;;;;;32.90;86.80;;;;;;5043307;28;19979;-92
2023/07/09 14:03:25;;;;;;;;;;;33.10;84.60;;;;;;5032045;28;19968;-90
2023/07/09 14:05:51;;;;;;;;;;;33.00;85.00;;;;;;5031271;28;19925;-93
2023/07/09 14:08:16;;;;;;;;;;;32.90;84.20;;;;;;5015396;28;19957;-91
2023/07/09 14:10:42;;;;;;;;;;;32.90;85.70;;;;;;5024679;28;19925;-91
2023/07/09 14:13:15;;;;;;;;;;;32.90;84.60;;;;;;5022987;28;19929;-91
2023/07/09 14:15:41;;;;;;;;;;;32.90;85.30;;;;;;5020865;28;19929;-91
2023/07/09 14:18:15;;;;;;;;;;;33.00;84.80;;;;;;5009093;28;20322;-90